createdAt,value
2023-01-17T00:02:15.197Z,95863.81
2023-01-17T00:05:01.650Z,95860.09
2023-01-17T00:07:47.645Z,95863.42
2023-01-17T00:10:18.486Z,95861.05
2023-01-17T00:13:01.872Z,95855.79
2023-01-17T00:15:31.164Z,95854.46
2023-01-17T00:17:59.498Z,95852.80
2023-01-17T00:20:48.449Z,95847.04
2023-01-17T00:23:38.222Z,95841.35
2023-01-17T00:26:26.482Z,95839.02
2023-01-17T00:28:53.762Z,95830.64
2023-01-17T00:31:21.205Z,95834.08
2023-01-17T00:33:48.162Z,95831.70
2023-01-17T00:36:15.282Z,95828.70
2023-01-17T00:38:42.642Z,95828.46
2023-01-17T00:41:15.142Z,95828.60
2023-01-17T00:44:01.162Z,95838.36
2023-01-17T00:46:46.870Z,95845.57
2023-01-17T00:49:32.642Z,95848.22
2023-01-17T00:52:18.892Z,95852.15
2023-01-17T00:55:04.310Z,95859.20
2023-01-17T00:57:50.186Z,95857.52
2023-01-17T01:00:39.327Z,95861.56
2023-01-17T01:03:30.758Z,95864.50
2023-01-17T01:06:16.860Z,95871.22
2023-01-17T01:09:02.957Z,95874.56
2023-01-17T01:11:49.208Z,95874.52
2023-01-17T01:14:35.682Z,95872.51
2023-01-17T01:17:22.081Z,95866.26
2023-01-17T01:20:08.269Z,95865.06
2023-01-17T01:22:54.227Z,95877.00
2023-01-17T01:25:40.527Z,95878.02
2023-01-17T01:28:30.894Z,95883.89
2023-01-17T01:31:21.305Z,95890.73
2023-01-17T01:33:48.839Z,95891.89
2023-01-17T01:36:15.809Z,95894.08
2023-01-17T01:38:43.126Z,95893.88
2023-01-17T01:41:10.242Z,95895.41
2023-01-17T01:43:44.412Z,95897.46
2023-01-17T01:46:37.045Z,95892.36
2023-01-17T01:49:12.506Z,95895.52
2023-01-17T01:51:43.644Z,95888.42
2023-01-17T01:54:34.148Z,95894.16
2023-01-17T01:57:06.101Z,95893.73
2023-01-17T01:59:35.168Z,95901.98
2023-01-17T02:02:02.864Z,95900.97
2023-01-17T02:04:29.898Z,95904.75
2023-01-17T02:07:13.602Z,95900.08
2023-01-17T02:09:41.442Z,95903.05
2023-01-17T02:12:10.516Z,95895.95
2023-01-17T02:14:37.740Z,95890.20
2023-01-17T02:17:16.151Z,95894.77
2023-01-17T02:20:02.066Z,95885.98
2023-01-17T02:23:05.022Z,95890.14
2023-01-17T02:25:43.414Z,95887.83
2023-01-17T02:28:26.805Z,95878.97
2023-01-17T02:31:05.359Z,95874.81
2023-01-17T02:33:53.690Z,95878.70
2023-01-17T02:36:26.569Z,95873.90
2023-01-17T02:39:05.851Z,95870.88
2023-01-17T02:41:46.295Z,95859.49
2023-01-17T02:44:18.565Z,95858.77
2023-01-17T02:47:28.125Z,95857.08
2023-01-17T02:50:01.777Z,95859.00
2023-01-17T02:52:50.354Z,95863.73
2023-01-17T02:55:42.208Z,95865.67
2023-01-17T02:58:24.906Z,95862.33
2023-01-17T03:01:07.904Z,95865.82
2023-01-17T03:04:10.328Z,95865.38
2023-01-17T03:06:45.085Z,95865.95
2023-01-17T03:09:15.079Z,95862.08
2023-01-17T03:11:43.299Z,95861.25
2023-01-17T03:14:10.341Z,95862.21
2023-01-17T03:16:37.326Z,95860.60
2023-01-17T03:19:04.841Z,95866.69
2023-01-17T03:21:31.803Z,95871.81
2023-01-17T03:23:58.746Z,95877.83
2023-01-17T03:26:25.683Z,95876.92
2023-01-17T03:28:52.644Z,95880.52
2023-01-17T03:31:22.358Z,95879.95
2023-01-17T03:33:49.371Z,95880.38
2023-01-17T03:36:16.444Z,95883.36
2023-01-17T03:38:43.365Z,95880.20
2023-01-17T03:41:10.332Z,95880.01
2023-01-17T03:43:37.503Z,95877.45
2023-01-17T03:46:07.432Z,95874.98
2023-01-17T03:48:34.727Z,95875.29
2023-01-17T03:51:01.763Z,95876.01
2023-01-17T03:53:28.723Z,95877.67
2023-01-17T03:55:55.545Z,95877.13
2023-01-17T03:58:22.374Z,95877.60
2023-01-17T04:00:49.388Z,95880.55
2023-01-17T04:03:16.366Z,95881.50
2023-01-17T04:05:43.208Z,95879.86
2023-01-17T04:08:10.164Z,95880.55
2023-01-17T04:10:36.993Z,95875.85
2023-01-17T04:13:03.970Z,95878.74
2023-01-17T04:15:31.281Z,95878.84
2023-01-17T04:17:58.430Z,95875.35
2023-01-17T04:20:37.798Z,95880.42
2023-01-17T04:23:05.912Z,95882.23
2023-01-17T04:25:33.390Z,95880.39
2023-01-17T04:28:02.166Z,95886.61
2023-01-17T04:30:29.991Z,95890.59
2023-01-17T04:32:57.907Z,95891.06
2023-01-17T04:35:25.464Z,95892.75
2023-01-17T04:37:53.254Z,95892.05
2023-01-17T04:40:20.685Z,95895.95
2023-01-17T04:42:48.720Z,95902.73
2023-01-17T04:45:16.381Z,95905.27
2023-01-17T04:47:43.303Z,95907.80
2023-01-17T04:50:11.622Z,95908.63
2023-01-17T04:52:38.609Z,95909.70
2023-01-17T04:55:06.876Z,95913.20
2023-01-17T04:57:33.745Z,95910.42
2023-01-17T05:00:00.633Z,95913.78
2023-01-17T05:02:27.496Z,95916.27
2023-01-17T05:04:54.856Z,95921.23
2023-01-17T05:07:21.764Z,95928.10
2023-01-17T05:09:48.723Z,95935.63
2023-01-17T05:12:15.684Z,95936.38
2023-01-17T05:14:42.690Z,95931.47
2023-01-17T05:17:20.953Z,95933.24
2023-01-17T05:19:48.151Z,95932.27
2023-01-17T05:22:15.671Z,95926.05
2023-01-17T05:24:47.225Z,95931.64
2023-01-17T05:27:15.454Z,95937.72
2023-01-17T05:29:42.677Z,95936.13
2023-01-17T05:32:10.096Z,95938.67
2023-01-17T05:34:37.443Z,95932.08
2023-01-17T05:37:04.537Z,95924.33
2023-01-17T05:39:31.469Z,95925.34
2023-01-17T05:41:59.949Z,95929.64
2023-01-17T05:44:28.356Z,95934.73
2023-01-17T05:46:56.601Z,95937.37
2023-01-17T05:49:24.651Z,95947.48
2023-01-17T05:51:54.728Z,95948.20
2023-01-17T05:54:22.407Z,95944.08
2023-01-17T05:56:49.535Z,95936.44
2023-01-17T05:59:20.545Z,95931.40
2023-01-17T06:01:54.849Z,95931.05
2023-01-17T06:04:22.250Z,95931.78
2023-01-17T06:06:49.362Z,95940.06
2023-01-17T06:09:16.401Z,95948.24
2023-01-17T06:11:43.635Z,95949.88
2023-01-17T06:14:10.688Z,95954.33
2023-01-17T06:16:37.733Z,95956.99
2023-01-17T06:19:04.683Z,95955.40
2023-01-17T06:21:31.771Z,95960.89
2023-01-17T06:23:58.864Z,95959.45
2023-01-17T06:26:25.843Z,95962.35
2023-01-17T06:28:53.160Z,95960.83
2023-01-17T06:31:20.252Z,95968.17
2023-01-17T06:33:47.610Z,95968.96
2023-01-17T06:36:14.607Z,95970.52
2023-01-17T06:38:41.557Z,95974.39
2023-01-17T06:41:10.229Z,95972.90
2023-01-17T06:43:37.495Z,95971.08
2023-01-17T06:46:05.069Z,95973.68
2023-01-17T06:48:32.289Z,95978.95
2023-01-17T06:50:59.333Z,95977.81
2023-01-17T06:53:26.367Z,95979.30
2023-01-17T06:55:58.107Z,95982.76
2023-01-17T06:58:25.292Z,95985.08
2023-01-17T07:00:52.763Z,95983.17
2023-01-17T07:03:25.622Z,95986.41
2023-01-17T07:05:53.586Z,95992.11
2023-01-17T07:08:20.955Z,95994.38
2023-01-17T07:10:49.127Z,95990.92
2023-01-17T07:13:16.774Z,95988.58
2023-01-17T07:15:44.173Z,95990.02
2023-01-17T07:18:11.273Z,95992.92
2023-01-17T07:20:38.922Z,95992.92
2023-01-17T07:23:06.603Z,95994.95
2023-01-17T07:25:34.170Z,95997.59
2023-01-17T07:28:01.197Z,96000.42
2023-01-17T07:30:28.490Z,96005.52
2023-01-17T07:32:56.748Z,96004.17
2023-01-17T07:35:26.978Z,96009.15
2023-01-17T07:37:55.145Z,96009.00
2023-01-17T07:40:23.061Z,96013.34
2023-01-17T07:42:50.483Z,96013.71
2023-01-17T07:45:17.584Z,96015.37
2023-01-17T07:47:45.052Z,96017.27
2023-01-17T07:50:13.967Z,96014.59
2023-01-17T07:52:41.126Z,96010.33
2023-01-17T07:55:09.336Z,96014.77
2023-01-17T07:57:36.645Z,96016.23
2023-01-17T08:00:05.359Z,96021.08
2023-01-17T08:02:32.618Z,96022.59
2023-01-17T08:04:59.844Z,96024.77
2023-01-17T08:07:26.967Z,96029.55
2023-01-17T08:09:55.143Z,96029.38
2023-01-17T08:12:22.139Z,96031.80
2023-01-17T08:14:49.449Z,96035.77
2023-01-17T08:17:17.460Z,96035.65
2023-01-17T08:19:45.405Z,96035.90
2023-01-17T08:22:12.750Z,96040.36
2023-01-17T08:24:39.739Z,96050.87
2023-01-17T08:27:07.207Z,96048.45
2023-01-17T08:29:34.189Z,96050.56
2023-01-17T08:32:01.210Z,96052.52
2023-01-17T08:34:28.378Z,96052.95
2023-01-17T08:36:55.772Z,96057.46
2023-01-17T08:39:22.687Z,96056.78
2023-01-17T08:41:49.937Z,96048.71
2023-01-17T08:44:16.911Z,96047.59
2023-01-17T08:46:45.193Z,96048.29
2023-01-17T08:49:12.741Z,96050.29
2023-01-17T08:51:40.507Z,96049.88
2023-01-17T08:54:07.799Z,96053.39
2023-01-17T08:56:35.862Z,96061.25
2023-01-17T08:59:03.514Z,96063.45
2023-01-17T09:01:30.737Z,96066.36
2023-01-17T09:03:57.940Z,96063.02
2023-01-17T09:06:24.752Z,96067.45
2023-01-17T09:08:52.551Z,96067.48
2023-01-17T09:11:19.808Z,96068.96
2023-01-17T09:13:46.870Z,96070.16
2023-01-17T09:16:13.985Z,96076.10
2023-01-17T09:18:41.132Z,96078.34
2023-01-17T09:21:17.041Z,96080.07
2023-01-17T09:23:45.087Z,96080.70
2023-01-17T09:26:32.711Z,96076.61
2023-01-17T09:28:59.755Z,96079.27
2023-01-17T09:31:28.135Z,96079.65
2023-01-17T09:33:56.901Z,96078.96
2023-01-17T09:36:29.106Z,96083.22
2023-01-17T09:38:58.463Z,96084.28
2023-01-17T09:41:30.815Z,96086.98
2023-01-17T09:44:06.600Z,96089.09
2023-01-17T09:46:40.609Z,96086.27
2023-01-17T09:49:13.488Z,96090.18
2023-01-17T09:51:42.569Z,96083.72
2023-01-17T09:54:24.254Z,96088.73
2023-01-17T09:57:18.143Z,96086.86
2023-01-17T10:00:04.179Z,96085.06
2023-01-17T10:03:11.168Z,96084.23
2023-01-17T10:05:58.815Z,96084.84
2023-01-17T10:08:44.936Z,96080.89
2023-01-17T10:11:30.207Z,96075.30
2023-01-17T10:14:03.221Z,96085.68
2023-01-17T10:16:48.151Z,96088.82
2023-01-17T10:19:32.075Z,96091.11
2023-01-17T10:22:09.270Z,96091.81
2023-01-17T10:25:05.015Z,96091.59
2023-01-17T10:28:00.232Z,96085.88
2023-01-17T10:30:43.882Z,96083.98
2023-01-17T10:33:21.780Z,96089.09
2023-01-17T10:35:54.084Z,96088.78
2023-01-17T10:38:32.954Z,96088.71
2023-01-17T10:41:06.264Z,96089.52
2023-01-17T10:43:45.936Z,96096.98
2023-01-17T10:46:20.446Z,96095.30
2023-01-17T10:48:50.861Z,96099.16
2023-01-17T10:51:50.290Z,96101.09
2023-01-17T10:54:45.601Z,96103.33
2023-01-17T10:57:25.997Z,96105.80
2023-01-17T10:59:54.498Z,96102.66
2023-01-17T11:02:30.376Z,96101.56
2023-01-17T11:05:03.912Z,96103.09
2023-01-17T11:07:31.540Z,96105.65
2023-01-17T11:09:59.669Z,96103.29
2023-01-17T11:12:34.054Z,96102.41
2023-01-17T11:15:27.671Z,96100.52
2023-01-17T11:18:17.262Z,96101.98
2023-01-17T11:20:45.279Z,96103.95
2023-01-17T11:23:27.116Z,96103.36
2023-01-17T11:26:03.052Z,96099.02
2023-01-17T11:28:32.745Z,96100.77
2023-01-17T11:31:09.437Z,96101.39
2023-01-17T11:33:45.642Z,96100.92
2023-01-17T11:36:32.154Z,96094.88
2023-01-17T11:39:04.986Z,96088.20
2023-01-17T11:41:41.543Z,96083.55
2023-01-17T11:44:22.065Z,96081.95
2023-01-17T11:47:07.643Z,96083.76
2023-01-17T11:49:34.593Z,96071.65
2023-01-17T11:52:08.195Z,96065.21
2023-01-17T11:54:40.850Z,96066.32
2023-01-17T11:57:21.541Z,96069.08
2023-01-17T11:59:49.096Z,96063.20
2023-01-17T12:03:07.066Z,96059.52
2023-01-17T12:06:08.899Z,96056.99
2023-01-17T12:08:39.634Z,96057.06
2023-01-17T12:11:23.343Z,96057.14
2023-01-17T12:14:23.324Z,96051.90
2023-01-17T12:16:50.406Z,96048.19
2023-01-17T12:19:54.978Z,96052.70
2023-01-17T12:22:48.383Z,96056.49
2023-01-17T12:25:28.775Z,96053.35
2023-01-17T12:28:35.222Z,96051.88
2023-01-17T12:31:19.720Z,96057.65
2023-01-17T12:33:55.860Z,96067.15
2023-01-17T12:36:31.339Z,96066.46
2023-01-17T12:39:03.803Z,96066.23
2023-01-17T12:41:40.295Z,96061.05
2023-01-17T12:44:11.871Z,96054.34
2023-01-17T12:46:49.292Z,96052.40
2023-01-17T12:49:35.299Z,96053.42
2023-01-17T12:52:34.267Z,96053.67
2023-01-17T12:55:12.350Z,96052.91
2023-01-17T12:57:45.681Z,96055.45
2023-01-17T13:00:25.740Z,96057.58
2023-01-17T13:03:27.866Z,96041.36
2023-01-17T13:05:58.076Z,96037.83
2023-01-17T13:08:47.065Z,96046.42
2023-01-17T13:11:53.482Z,96051.15
2023-01-17T13:14:20.912Z,96042.04
2023-01-17T13:16:59.171Z,96040.56
2023-01-17T13:20:01.943Z,96046.30
2023-01-17T13:22:30.740Z,96041.39
2023-01-17T13:25:09.386Z,96042.64
2023-01-17T13:28:03.483Z,96045.49
2023-01-17T13:30:43.769Z,96052.60
2023-01-17T13:34:07.740Z,96056.90
2023-01-17T13:36:50.916Z,96066.88
2023-01-17T13:39:42.979Z,96068.02
2023-01-17T13:42:18.993Z,96076.98
2023-01-17T13:44:46.938Z,96079.70
2023-01-17T13:47:19.701Z,96079.88
2023-01-17T13:49:50.098Z,96087.76
2023-01-17T13:52:19.909Z,96095.84
2023-01-17T13:54:53.958Z,96103.02
2023-01-17T13:57:28.536Z,96101.99
2023-01-17T13:59:58.321Z,96105.49
2023-01-17T14:02:38.787Z,96107.41
2023-01-17T14:05:10.701Z,96109.27
2023-01-17T14:07:48.309Z,96116.89
2023-01-17T14:10:31.598Z,96125.64
2023-01-17T14:12:59.598Z,96131.95
2023-01-17T14:15:30.229Z,96137.59
2023-01-17T14:18:06.473Z,96142.31
2023-01-17T14:20:43.276Z,96149.50
2023-01-17T14:23:34.217Z,96157.33
2023-01-17T14:26:19.979Z,96153.50
2023-01-17T14:28:47.297Z,96155.36
2023-01-17T14:31:17.672Z,96158.02
2023-01-17T14:33:45.070Z,96161.91
2023-01-17T14:36:25.793Z,96163.81
2023-01-17T14:38:53.101Z,96168.64
2023-01-17T14:41:26.625Z,96176.65
2023-01-17T14:43:55.204Z,96172.42
2023-01-17T14:46:33.132Z,96177.23
2023-01-17T14:49:04.333Z,96178.20
2023-01-17T14:51:35.519Z,96176.44
2023-01-17T14:54:06.737Z,96180.94
2023-01-17T14:56:34.485Z,96184.70
2023-01-17T14:59:17.684Z,96194.19
2023-01-17T15:02:06.117Z,96193.88
2023-01-17T15:04:40.015Z,96194.27
2023-01-17T15:07:08.157Z,96195.01
2023-01-17T15:09:37.858Z,96190.06
2023-01-17T15:12:08.723Z,96188.47
2023-01-17T15:14:40.486Z,96184.46
2023-01-17T15:17:24.925Z,96183.73
2023-01-17T15:20:15.927Z,96179.27
2023-01-17T15:22:43.771Z,96174.42
2023-01-17T15:25:13.027Z,96180.25
2023-01-17T15:27:41.529Z,96177.23
2023-01-17T15:30:13.721Z,96175.25
2023-01-17T15:32:40.800Z,96171.29
2023-01-17T15:35:18.298Z,96171.23
2023-01-17T15:37:45.454Z,96168.27
2023-01-17T15:40:20.533Z,96159.52
2023-01-17T15:42:51.081Z,96161.48
2023-01-17T15:45:28.330Z,96161.39
2023-01-17T15:47:59.547Z,96159.83
2023-01-17T15:50:31.238Z,96158.04
2023-01-17T15:53:07.242Z,96150.85
2023-01-17T15:55:53.749Z,96147.14
2023-01-17T15:58:35.136Z,96144.70
2023-01-17T16:01:02.743Z,96143.67
2023-01-17T16:03:31.252Z,96143.27
2023-01-17T16:06:01.018Z,96140.13
2023-01-17T16:08:31.416Z,96137.59
2023-01-17T16:11:06.426Z,96134.16
2023-01-17T16:13:38.850Z,96135.85
2023-01-17T16:16:19.619Z,96135.67
2023-01-17T16:18:48.942Z,96136.50
2023-01-17T16:21:22.964Z,96135.83
2023-01-17T16:23:50.367Z,96139.42
2023-01-17T16:26:17.770Z,96138.81
2023-01-17T16:28:46.127Z,96133.60
2023-01-17T16:31:19.200Z,96132.17
2023-01-17T16:33:50.998Z,96126.04
2023-01-17T16:36:18.343Z,96127.08
2023-01-17T16:38:48.712Z,96129.98
2023-01-17T16:41:15.753Z,96127.40
2023-01-17T16:43:43.117Z,96122.44
2023-01-17T16:46:12.143Z,96120.50
2023-01-17T16:48:39.758Z,96117.81
2023-01-17T16:51:08.202Z,96113.86
2023-01-17T16:53:36.791Z,96113.77
2023-01-17T16:56:12.395Z,96112.48
2023-01-17T16:58:40.932Z,96106.30
2023-01-17T17:01:16.626Z,96096.95
2023-01-17T17:03:44.869Z,96095.48
2023-01-17T17:06:18.734Z,96099.31
2023-01-17T17:08:59.784Z,96102.73
2023-01-17T17:11:34.701Z,96096.39
2023-01-17T17:14:02.839Z,96094.96
2023-01-17T17:16:30.954Z,96094.11
2023-01-17T17:19:00.570Z,96090.80
2023-01-17T17:21:30.032Z,96088.75
2023-01-17T17:23:59.416Z,96087.82
2023-01-17T17:26:37.429Z,96095.95
2023-01-17T17:29:06.534Z,96089.98
2023-01-17T17:31:34.244Z,96085.09
2023-01-17T17:34:02.459Z,96090.92
2023-01-17T17:36:32.556Z,96101.31
2023-01-17T17:38:59.561Z,96106.53
2023-01-17T17:41:35.103Z,96100.82
2023-01-17T17:44:04.188Z,96106.64
2023-01-17T17:46:32.163Z,96109.79
2023-01-17T17:49:00.175Z,96112.73
2023-01-17T17:51:30.890Z,96115.45
2023-01-17T17:54:06.772Z,96115.58
2023-01-17T17:56:35.239Z,96124.27
2023-01-17T17:59:04.186Z,96128.78
2023-01-17T18:01:31.746Z,96132.22
2023-01-17T18:04:03.304Z,96129.79
2023-01-17T18:06:31.232Z,96125.63
2023-01-17T18:09:13.951Z,96125.19
2023-01-17T18:11:43.346Z,96127.55
2023-01-17T18:14:13.967Z,96135.48
2023-01-17T18:16:43.880Z,96138.20
2023-01-17T18:19:23.279Z,96132.86
2023-01-17T18:21:51.952Z,96138.89
2023-01-17T18:24:24.304Z,96137.13
2023-01-17T18:26:52.833Z,96135.37
2023-01-17T18:29:22.148Z,96132.33
2023-01-17T18:31:50.537Z,96131.48
2023-01-17T18:34:23.369Z,96130.78
2023-01-17T18:36:52.190Z,96130.54
2023-01-17T18:39:22.450Z,96124.05
2023-01-17T18:41:50.267Z,96119.80
2023-01-17T18:44:19.192Z,96122.16
2023-01-17T18:46:48.485Z,96125.39
2023-01-17T18:49:21.806Z,96121.57
2023-01-17T18:51:51.726Z,96123.64
2023-01-17T18:54:20.965Z,96121.42
2023-01-17T18:56:48.570Z,96125.98
2023-01-17T18:59:18.755Z,96125.72
2023-01-17T19:01:46.351Z,96126.48
2023-01-17T19:04:15.290Z,96128.14
2023-01-17T19:06:44.753Z,96130.52
2023-01-17T19:09:13.871Z,96122.29
2023-01-17T19:11:43.390Z,96115.63
2023-01-17T19:14:12.856Z,96109.36
2023-01-17T19:16:42.010Z,96099.33
2023-01-17T19:19:12.476Z,96094.63
2023-01-17T19:21:40.099Z,96092.02
2023-01-17T19:24:07.865Z,96088.44
2023-01-17T19:26:35.093Z,96084.92
2023-01-17T19:29:05.738Z,96075.45
2023-01-17T19:31:39.937Z,96072.92
2023-01-17T19:34:07.234Z,96083.05
2023-01-17T19:36:36.611Z,96090.81
2023-01-17T19:39:06.892Z,96094.42
2023-01-17T19:41:36.467Z,96089.64
2023-01-17T19:44:07.703Z,96084.84
2023-01-17T19:46:36.121Z,96079.65
2023-01-17T19:49:04.679Z,96086.46
2023-01-17T19:51:44.206Z,96088.91
2023-01-17T19:54:16.127Z,96077.02
2023-01-17T19:56:43.618Z,96077.48
2023-01-17T19:59:13.415Z,96078.90
2023-01-17T20:01:40.721Z,96086.06
2023-01-17T20:04:08.261Z,96083.36
2023-01-17T20:06:36.858Z,96084.13
2023-01-17T20:09:05.848Z,96081.30
2023-01-17T20:11:33.347Z,96081.34
2023-01-17T20:14:01.056Z,96081.42
2023-01-17T20:16:30.462Z,96077.20
2023-01-17T20:18:59.493Z,96067.64
2023-01-17T20:21:28.474Z,96064.45
2023-01-17T20:23:58.032Z,96057.66
2023-01-17T20:26:31.475Z,96056.30
2023-01-17T20:28:59.023Z,96049.27
2023-01-17T20:31:27.702Z,96046.20
2023-01-17T20:33:56.284Z,96039.57
2023-01-17T20:36:26.900Z,96036.78
2023-01-17T20:38:54.891Z,96036.32
2023-01-17T20:41:29.191Z,96040.10
2023-01-17T20:43:58.518Z,96040.46
2023-01-17T20:46:27.518Z,96043.48
2023-01-17T20:48:56.741Z,96047.38
2023-01-17T20:51:26.717Z,96050.20
2023-01-17T20:54:03.001Z,96051.92
2023-01-17T20:56:34.912Z,96048.98
2023-01-17T20:59:07.862Z,96052.39
2023-01-17T21:01:35.812Z,96049.16
2023-01-17T21:04:03.638Z,96048.98
2023-01-17T21:06:31.470Z,96039.41
2023-01-17T21:09:00.397Z,96030.94
2023-01-17T21:11:28.247Z,96021.65
2023-01-17T21:13:56.486Z,96014.84
2023-01-17T21:16:24.212Z,96020.17
2023-01-17T21:18:52.560Z,96023.41
2023-01-17T21:21:22.358Z,96033.90
2023-01-17T21:23:51.291Z,96033.70
2023-01-17T21:26:19.982Z,96038.94
2023-01-17T21:28:48.761Z,96053.88
2023-01-17T21:31:23.466Z,96057.80
2023-01-17T21:34:11.507Z,96050.19
2023-01-17T21:36:40.909Z,96040.79
2023-01-17T21:39:16.502Z,96045.98
2023-01-17T21:41:46.228Z,96052.20
2023-01-17T21:44:20.396Z,96055.55
2023-01-17T21:46:48.781Z,96052.46
2023-01-17T21:49:16.099Z,96052.30
2023-01-17T21:52:04.337Z,96052.41
2023-01-17T21:54:50.865Z,96045.49
2023-01-17T21:57:39.938Z,96043.90
2023-01-17T22:00:12.414Z,96043.39
2023-01-17T22:02:40.210Z,96045.32
2023-01-17T22:05:09.214Z,96045.61
2023-01-17T22:07:36.538Z,96042.41
2023-01-17T22:10:03.514Z,96040.45
2023-01-17T22:12:30.497Z,96039.55
2023-01-17T22:14:57.601Z,96040.27
2023-01-17T22:17:24.854Z,96041.10
2023-01-17T22:19:51.936Z,96039.16
2023-01-17T22:22:19.057Z,96035.33
2023-01-17T22:24:46.088Z,96033.06
2023-01-17T22:27:14.189Z,96030.23
2023-01-17T22:29:41.516Z,96021.15
2023-01-17T22:32:08.817Z,96011.52
2023-01-17T22:34:36.214Z,96006.75
2023-01-17T22:37:04.983Z,96002.15
2023-01-17T22:39:32.156Z,95995.76
2023-01-17T22:42:00.065Z,95989.83
2023-01-17T22:44:27.272Z,95984.15
2023-01-17T22:46:54.102Z,95980.84
2023-01-17T22:49:23.853Z,95975.88
2023-01-17T22:51:51.303Z,95973.63
2023-01-17T22:54:19.777Z,95968.38
2023-01-17T22:56:47.067Z,95966.77
2023-01-17T22:59:14.182Z,95966.83
2023-01-17T23:01:41.317Z,95967.55
2023-01-17T23:04:12.264Z,95966.44
2023-01-17T23:06:40.344Z,95961.85
2023-01-17T23:09:11.164Z,95958.47
2023-01-17T23:11:39.642Z,95953.17
2023-01-17T23:14:23.443Z,95947.55
2023-01-17T23:17:21.211Z,95943.33
2023-01-17T23:19:51.323Z,95937.63
2023-01-17T23:22:23.874Z,95933.31
2023-01-17T23:25:02.577Z,95934.50
2023-01-17T23:27:57.783Z,95930.45
2023-01-17T23:30:34.896Z,95929.21
2023-01-17T23:33:11.561Z,95930.23
2023-01-17T23:35:42.070Z,95924.61
2023-01-17T23:38:27.166Z,95919.95
2023-01-17T23:41:22.413Z,95915.45
2023-01-17T23:43:53.833Z,95908.28
2023-01-17T23:46:21.865Z,95905.96
2023-01-17T23:48:49.618Z,95898.27
2023-01-17T23:51:16.708Z,95893.65
2023-01-17T23:53:43.745Z,95890.88
2023-01-17T23:56:15.472Z,95886.20
2023-01-17T23:58:42.341Z,95892.44
